createdAt,value
2023-01-18T00:02:01.356Z,-2.93
2023-01-18T00:04:27.965Z,-3.00
2023-01-18T00:06:54.357Z,-3.04
2023-01-18T00:09:20.726Z,-3.04
2023-01-18T00:11:48.703Z,-3.03
2023-01-18T00:14:15.020Z,-2.99
2023-01-18T00:16:41.422Z,-2.98
2023-01-18T00:19:12.990Z,-2.98
2023-01-18T00:21:40.491Z,-3.01
2023-01-18T00:24:10.850Z,-3.18
2023-01-18T00:26:37.901Z,-3.33
2023-01-18T00:29:04.818Z,-3.28
2023-01-18T00:31:31.672Z,-3.27
2023-01-18T00:33:58.462Z,-3.34
2023-01-18T00:36:24.775Z,-3.29
2023-01-18T00:38:51.867Z,-3.26
2023-01-18T00:41:18.828Z,-3.27
2023-01-18T00:43:45.135Z,-3.22
2023-01-18T00:46:14.473Z,-3.26
2023-01-18T00:48:41.975Z,-3.29
2023-01-18T00:51:12.408Z,-3.29
2023-01-18T00:53:40.224Z,-3.37
2023-01-18T00:56:08.809Z,-3.39
2023-01-18T00:58:35.197Z,-3.35
2023-01-18T01:01:01.574Z,-3.37
2023-01-18T01:03:28.072Z,-3.34
2023-01-18T01:06:12.859Z,-3.35
2023-01-18T01:08:39.265Z,-3.34
2023-01-18T01:11:11.798Z,-3.38
2023-01-18T01:13:57.091Z,-3.35
2023-01-18T01:16:42.323Z,-3.28
2023-01-18T01:19:27.627Z,-3.28
2023-01-18T01:22:12.281Z,-3.27
2023-01-18T01:24:57.012Z,-3.33
2023-01-18T01:27:23.328Z,-3.34
2023-01-18T01:29:51.533Z,-3.35
2023-01-18T01:32:18.022Z,-3.34
2023-01-18T01:34:44.403Z,-3.37
2023-01-18T01:37:10.755Z,-3.40
2023-01-18T01:39:37.074Z,-3.37
2023-01-18T01:42:03.520Z,-3.46
2023-01-18T01:44:34.244Z,-3.46
2023-01-18T01:47:09.430Z,-3.51
2023-01-18T01:49:42.048Z,-3.57
2023-01-18T01:52:11.294Z,-3.56
2023-01-18T01:54:43.550Z,-3.62
2023-01-18T01:57:18.622Z,-3.67
2023-01-18T01:59:52.580Z,-3.70
2023-01-18T02:02:19.228Z,-3.67
2023-01-18T02:04:46.342Z,-3.70
2023-01-18T02:07:13.056Z,-3.67
2023-01-18T02:09:39.842Z,-3.76
2023-01-18T02:12:06.498Z,-3.75
2023-01-18T02:14:33.097Z,-3.77
2023-01-18T02:17:11.265Z,-3.74
2023-01-18T02:19:52.697Z,-3.69
2023-01-18T02:22:48.305Z,-3.72
2023-01-18T02:25:31.206Z,-3.83
2023-01-18T02:28:12.831Z,-3.85
2023-01-18T02:30:49.401Z,-3.88
2023-01-18T02:33:31.868Z,-3.93
2023-01-18T02:36:01.486Z,-3.90
2023-01-18T02:38:36.604Z,-3.91
2023-01-18T02:41:49.293Z,-3.89
2023-01-18T02:44:40.637Z,-3.84
2023-01-18T02:47:09.195Z,-3.81
2023-01-18T02:49:35.560Z,-3.86
2023-01-18T02:52:03.108Z,-3.90
2023-01-18T02:54:32.283Z,-3.95
2023-01-18T02:57:01.962Z,-4.01
2023-01-18T02:59:35.164Z,-4.03
2023-01-18T03:02:09.275Z,-4.04
2023-01-18T03:04:54.137Z,-3.98
2023-01-18T03:07:45.652Z,-3.97
2023-01-18T03:10:13.425Z,-4.01
2023-01-18T03:12:56.588Z,-4.04
2023-01-18T03:15:47.533Z,-4.02
2023-01-18T03:18:33.400Z,-3.98
2023-01-18T03:21:05.356Z,-3.97
2023-01-18T03:23:41.070Z,-4.04
2023-01-18T03:26:10.878Z,-4.06
2023-01-18T03:29:06.367Z,-4.02
2023-01-18T03:32:09.765Z,-4.04
2023-01-18T03:35:07.968Z,-4.00
2023-01-18T03:37:41.526Z,-4.06
2023-01-18T03:40:15.583Z,-4.03
2023-01-18T03:42:50.829Z,-4.07
2023-01-18T03:45:25.992Z,-4.04
2023-01-18T03:47:52.874Z,-3.99
2023-01-18T03:50:47.909Z,-4.00
2023-01-18T03:53:20.998Z,-3.93
2023-01-18T03:55:53.433Z,-3.91
2023-01-18T03:58:25.490Z,-3.95
2023-01-18T04:00:53.163Z,-3.96
2023-01-18T04:03:19.586Z,-3.91
2023-01-18T04:05:46.080Z,-3.90
2023-01-18T04:08:12.449Z,-3.96
2023-01-18T04:10:38.786Z,-4.04
2023-01-18T04:13:05.149Z,-4.05
2023-01-18T04:15:31.678Z,-4.10
2023-01-18T04:17:57.993Z,-4.10
2023-01-18T04:20:24.348Z,-4.16
2023-01-18T04:22:54.940Z,-4.16
2023-01-18T04:25:21.723Z,-4.21
2023-01-18T04:27:48.057Z,-4.18
2023-01-18T04:30:14.614Z,-4.18
2023-01-18T04:32:42.693Z,-4.21
2023-01-18T04:35:09.861Z,-4.21
2023-01-18T04:37:38.070Z,-4.27
2023-01-18T04:40:05.634Z,-4.25
2023-01-18T04:42:32.006Z,-4.29
2023-01-18T04:44:59.845Z,-4.32
2023-01-18T04:47:28.948Z,-4.29
2023-01-18T04:49:57.314Z,-4.28
2023-01-18T04:52:23.776Z,-4.22
2023-01-18T04:54:50.130Z,-4.17
2023-01-18T04:57:16.458Z,-4.17
2023-01-18T04:59:45.772Z,-4.13
2023-01-18T05:02:12.679Z,-4.16
2023-01-18T05:04:39.054Z,-4.19
2023-01-18T05:07:05.401Z,-4.17
2023-01-18T05:09:31.747Z,-4.18
2023-01-18T05:11:58.059Z,-4.20
2023-01-18T05:14:24.504Z,-4.24
2023-01-18T05:16:50.838Z,-4.23
2023-01-18T05:19:17.205Z,-4.21
2023-01-18T05:21:43.510Z,-4.20
2023-01-18T05:24:09.833Z,-4.23
2023-01-18T05:26:36.350Z,-4.25
2023-01-18T05:29:02.736Z,-4.24
2023-01-18T05:31:29.162Z,-4.25
2023-01-18T05:33:58.578Z,-4.24
2023-01-18T05:36:24.944Z,-4.26
2023-01-18T05:38:51.287Z,-4.24
2023-01-18T05:41:18.306Z,-4.26
2023-01-18T05:43:44.754Z,-4.26
2023-01-18T05:46:14.776Z,-4.29
2023-01-18T05:48:41.096Z,-4.30
2023-01-18T05:51:11.442Z,-4.30
2023-01-18T05:53:38.084Z,-4.29
2023-01-18T05:56:07.276Z,-4.27
2023-01-18T05:58:33.645Z,-4.27
2023-01-18T06:01:00.102Z,-4.25
2023-01-18T06:03:26.619Z,-4.25
2023-01-18T06:05:53.107Z,-4.21
2023-01-18T06:08:20.402Z,-4.19
2023-01-18T06:10:57.854Z,-4.15
2023-01-18T06:13:27.878Z,-4.07
2023-01-18T06:15:55.295Z,-4.12
2023-01-18T06:18:22.075Z,-4.11
2023-01-18T06:20:48.437Z,-4.07
2023-01-18T06:23:15.285Z,-4.04
2023-01-18T06:25:41.600Z,-4.07
2023-01-18T06:28:07.947Z,-4.09
2023-01-18T06:30:34.338Z,-4.12
2023-01-18T06:33:06.065Z,-4.19
2023-01-18T06:35:33.919Z,-4.22
2023-01-18T06:38:00.365Z,-4.19
2023-01-18T06:40:26.858Z,-4.28
2023-01-18T06:42:53.199Z,-4.27
2023-01-18T06:45:21.932Z,-4.27
2023-01-18T06:47:49.273Z,-4.29
2023-01-18T06:50:16.069Z,-4.35
2023-01-18T06:52:43.858Z,-4.34
2023-01-18T06:55:14.828Z,-4.32
2023-01-18T06:57:41.381Z,-4.31
2023-01-18T07:00:09.408Z,-4.28
2023-01-18T07:02:36.631Z,-4.25
2023-01-18T07:05:04.429Z,-4.24
2023-01-18T07:07:31.009Z,-4.22
2023-01-18T07:09:57.378Z,-4.20
2023-01-18T07:12:23.765Z,-4.17
2023-01-18T07:14:50.152Z,-4.13
2023-01-18T07:17:16.525Z,-4.14
2023-01-18T07:19:44.114Z,-4.10
2023-01-18T07:22:10.443Z,-4.08
2023-01-18T07:24:36.764Z,-4.00
2023-01-18T07:27:03.239Z,-4.00
2023-01-18T07:29:29.573Z,-3.95
2023-01-18T07:31:56.124Z,-3.92
2023-01-18T07:34:22.478Z,-3.87
2023-01-18T07:36:48.890Z,-3.78
2023-01-18T07:39:15.377Z,-3.74
2023-01-18T07:41:42.026Z,-3.73
2023-01-18T07:44:10.200Z,-3.70
2023-01-18T07:46:36.535Z,-3.64
2023-01-18T07:49:05.641Z,-3.57
2023-01-18T07:51:33.304Z,-3.59
2023-01-18T07:53:59.672Z,-3.50
2023-01-18T07:56:27.075Z,-3.51
2023-01-18T07:58:53.584Z,-3.48
2023-01-18T08:01:21.988Z,-3.44
2023-01-18T08:03:49.973Z,-3.41
2023-01-18T08:06:21.000Z,-3.37
2023-01-18T08:08:47.452Z,-3.44
2023-01-18T08:11:13.854Z,-3.44
2023-01-18T08:13:41.248Z,-3.39
2023-01-18T08:16:11.013Z,-3.40
2023-01-18T08:18:37.493Z,-3.32
2023-01-18T08:21:04.519Z,-3.30
2023-01-18T08:23:30.910Z,-3.25
2023-01-18T08:26:00.916Z,-3.16
2023-01-18T08:28:27.321Z,-3.07
2023-01-18T08:30:53.772Z,-3.05
2023-01-18T08:33:20.122Z,-3.00
2023-01-18T08:35:47.907Z,-2.97
2023-01-18T08:38:16.170Z,-2.90
2023-01-18T08:40:42.861Z,-2.88
2023-01-18T08:43:10.742Z,-2.83
2023-01-18T08:45:37.228Z,-2.79
2023-01-18T08:48:09.296Z,-2.72
2023-01-18T08:50:36.074Z,-2.70
2023-01-18T08:53:03.941Z,-2.64
2023-01-18T08:55:30.661Z,-2.60
2023-01-18T08:57:58.164Z,-2.60
2023-01-18T09:00:28.301Z,-2.62
2023-01-18T09:02:54.926Z,-2.53
2023-01-18T09:05:21.781Z,-2.49
2023-01-18T09:07:48.283Z,-2.44
2023-01-18T09:10:14.823Z,-2.33
2023-01-18T09:12:41.142Z,-2.27
2023-01-18T09:15:08.461Z,-2.19
2023-01-18T09:17:34.930Z,-2.11
2023-01-18T09:20:01.284Z,-2.02
2023-01-18T09:22:27.625Z,-1.92
2023-01-18T09:24:53.987Z,-1.87
2023-01-18T09:27:20.313Z,-1.78
2023-01-18T09:29:52.174Z,-1.69
2023-01-18T09:32:20.130Z,-1.56
2023-01-18T09:34:50.667Z,-1.47
2023-01-18T09:37:18.944Z,-1.42
2023-01-18T09:39:51.700Z,-1.36
2023-01-18T09:42:25.221Z,-1.29
2023-01-18T09:44:58.575Z,-1.15
2023-01-18T09:47:29.022Z,-1.07
2023-01-18T09:49:56.606Z,-0.99
2023-01-18T09:53:09.557Z,-0.89
2023-01-18T09:55:53.899Z,-0.88
2023-01-18T09:58:41.426Z,-0.73
2023-01-18T10:01:16.125Z,-0.66
2023-01-18T10:04:00.101Z,-0.67
2023-01-18T10:07:01.808Z,-0.57
2023-01-18T10:09:33.616Z,-0.47
2023-01-18T10:12:04.510Z,-0.37
2023-01-18T10:15:02.055Z,-0.32
2023-01-18T10:17:39.035Z,-0.23
2023-01-18T10:20:36.640Z,-0.15
2023-01-18T10:23:12.434Z,-0.09
2023-01-18T10:25:44.557Z,0.00
2023-01-18T10:28:26.372Z,0.06
2023-01-18T10:30:58.087Z,0.17
2023-01-18T10:33:32.548Z,0.28
2023-01-18T10:36:06.196Z,0.34
2023-01-18T10:38:32.808Z,0.38
2023-01-18T10:41:01.414Z,0.47
2023-01-18T10:43:29.991Z,0.57
2023-01-18T10:45:56.461Z,0.66
2023-01-18T10:48:33.821Z,0.71
2023-01-18T10:51:03.060Z,0.74
2023-01-18T10:53:32.826Z,0.78
2023-01-18T10:56:21.509Z,0.79
2023-01-18T10:58:50.949Z,0.89
2023-01-18T11:01:22.366Z,0.96
2023-01-18T11:03:52.557Z,1.16
2023-01-18T11:06:20.593Z,1.22
2023-01-18T11:08:49.198Z,1.28
2023-01-18T11:12:06.015Z,1.41
2023-01-18T11:14:34.884Z,1.51
2023-01-18T11:17:10.830Z,1.47
2023-01-18T11:19:41.635Z,1.45
2023-01-18T11:22:13.397Z,1.52
2023-01-18T11:24:39.948Z,1.61
2023-01-18T11:27:20.191Z,1.76
2023-01-18T11:29:46.764Z,1.81
2023-01-18T11:32:30.988Z,1.88
2023-01-18T11:34:59.792Z,1.97
2023-01-18T11:37:31.294Z,1.98
2023-01-18T11:39:57.933Z,2.10
2023-01-18T11:42:31.428Z,2.21
2023-01-18T11:45:28.876Z,2.27
2023-01-18T11:48:30.123Z,2.35
2023-01-18T11:51:08.281Z,2.45
2023-01-18T11:53:48.710Z,2.43
2023-01-18T11:56:30.853Z,2.51
2023-01-18T11:58:57.689Z,2.52
2023-01-18T12:01:43.410Z,2.48
2023-01-18T12:04:23.014Z,2.55
2023-01-18T12:07:27.610Z,2.66
2023-01-18T12:10:00.205Z,2.66
2023-01-18T12:12:54.498Z,2.69
2023-01-18T12:15:45.423Z,2.66
2023-01-18T12:18:31.624Z,2.86
2023-01-18T12:21:11.860Z,2.86
2023-01-18T12:23:42.151Z,2.81
2023-01-18T12:26:17.094Z,2.74
2023-01-18T12:29:21.831Z,2.81
2023-01-18T12:32:06.759Z,2.85
2023-01-18T12:34:56.193Z,2.80
2023-01-18T12:37:41.281Z,2.89
2023-01-18T12:40:25.893Z,2.84
2023-01-18T12:43:11.013Z,2.94
2023-01-18T12:46:05.780Z,3.05
2023-01-18T12:48:42.728Z,2.98
2023-01-18T12:51:13.729Z,3.04
2023-01-18T12:53:46.323Z,3.01
2023-01-18T12:56:24.509Z,2.96
2023-01-18T12:58:57.556Z,2.99
2023-01-18T13:01:27.078Z,2.94
2023-01-18T13:04:00.186Z,2.99
2023-01-18T13:06:27.197Z,3.06
2023-01-18T13:09:22.554Z,3.10
2023-01-18T13:11:49.801Z,3.16
2023-01-18T13:14:38.338Z,3.15
2023-01-18T13:17:28.695Z,3.14
2023-01-18T13:20:04.899Z,3.19
2023-01-18T13:22:55.618Z,2.97
2023-01-18T13:25:32.235Z,3.04
2023-01-18T13:28:25.949Z,2.93
2023-01-18T13:31:01.743Z,2.95
2023-01-18T13:33:34.686Z,2.93
2023-01-18T13:36:08.592Z,2.97
2023-01-18T13:38:57.134Z,2.96
2023-01-18T13:41:25.478Z,2.93
2023-01-18T13:43:51.816Z,2.96
2023-01-18T13:46:26.070Z,2.92
2023-01-18T13:48:57.433Z,2.90
2023-01-18T13:51:46.960Z,2.97
2023-01-18T13:54:22.904Z,2.95
2023-01-18T13:57:01.465Z,2.80
2023-01-18T13:59:34.112Z,2.82
2023-01-18T14:02:17.742Z,2.81
2023-01-18T14:04:44.859Z,2.85
2023-01-18T14:07:19.741Z,2.85
2023-01-18T14:09:48.728Z,2.73
2023-01-18T14:12:15.470Z,2.76
2023-01-18T14:14:55.895Z,2.71
2023-01-18T14:17:25.029Z,2.69
2023-01-18T14:20:29.081Z,2.61
2023-01-18T14:23:17.409Z,2.63
2023-01-18T14:26:00.282Z,2.69
2023-01-18T14:28:44.852Z,2.66
2023-01-18T14:31:37.499Z,2.69
2023-01-18T14:34:28.674Z,2.71
2023-01-18T14:36:55.812Z,2.80
2023-01-18T14:39:22.945Z,2.64
2023-01-18T14:41:55.149Z,2.66
2023-01-18T14:44:24.013Z,2.63
2023-01-18T14:46:53.171Z,2.72
2023-01-18T14:49:30.889Z,2.70
2023-01-18T14:51:58.863Z,2.70
2023-01-18T14:54:25.859Z,2.66
2023-01-18T14:57:01.581Z,2.70
2023-01-18T14:59:30.668Z,2.77
2023-01-18T15:02:03.470Z,2.77
2023-01-18T15:04:32.783Z,2.77
2023-01-18T15:07:04.718Z,2.71
2023-01-18T15:09:34.265Z,2.71
2023-01-18T15:12:04.221Z,2.79
2023-01-18T15:14:33.433Z,2.83
2023-01-18T15:17:01.699Z,2.74
2023-01-18T15:19:39.960Z,2.76
2023-01-18T15:22:10.747Z,2.75
2023-01-18T15:24:39.460Z,2.76
2023-01-18T15:27:11.427Z,2.75
2023-01-18T15:29:38.816Z,2.77
2023-01-18T15:32:17.521Z,2.67
2023-01-18T15:34:47.298Z,2.61
2023-01-18T15:37:34.540Z,2.57
2023-01-18T15:40:06.728Z,2.43
2023-01-18T15:42:36.738Z,2.33
2023-01-18T15:45:03.741Z,2.34
2023-01-18T15:47:36.677Z,2.26
2023-01-18T15:50:15.541Z,2.23
2023-01-18T15:52:45.367Z,2.20
2023-01-18T15:55:35.757Z,2.20
2023-01-18T15:58:06.826Z,2.09
2023-01-18T16:00:43.209Z,2.10
2023-01-18T16:03:20.414Z,2.05
2023-01-18T16:06:07.101Z,2.02
2023-01-18T16:08:35.606Z,2.01
2023-01-18T16:11:02.026Z,1.96
2023-01-18T16:13:34.397Z,1.96
2023-01-18T16:16:18.420Z,1.93
2023-01-18T16:18:49.247Z,1.86
2023-01-18T16:21:40.268Z,1.91
2023-01-18T16:24:29.686Z,1.86
2023-01-18T16:26:58.204Z,1.74
2023-01-18T16:29:24.709Z,1.80
2023-01-18T16:31:51.100Z,1.74
2023-01-18T16:34:22.081Z,1.73
2023-01-18T16:36:49.271Z,1.70
2023-01-18T16:39:15.729Z,1.75
2023-01-18T16:41:45.462Z,1.76
2023-01-18T16:44:12.192Z,1.70
2023-01-18T16:46:38.529Z,1.73
2023-01-18T16:49:09.478Z,1.67
2023-01-18T16:51:36.000Z,1.67
2023-01-18T16:54:02.389Z,1.65
2023-01-18T16:56:28.702Z,1.58
2023-01-18T16:58:55.041Z,1.62
2023-01-18T17:01:21.493Z,1.69
2023-01-18T17:03:49.609Z,1.78
2023-01-18T17:06:22.359Z,1.79
2023-01-18T17:08:49.233Z,1.73
2023-01-18T17:11:15.701Z,1.69
2023-01-18T17:13:42.281Z,1.63
2023-01-18T17:16:15.035Z,1.59
2023-01-18T17:18:41.367Z,1.61
2023-01-18T17:21:10.147Z,1.62
2023-01-18T17:23:39.661Z,1.64
2023-01-18T17:26:07.577Z,1.71
2023-01-18T17:28:34.032Z,1.66
2023-01-18T17:31:00.708Z,1.66
2023-01-18T17:33:27.116Z,1.66
2023-01-18T17:35:54.552Z,1.58
2023-01-18T17:38:24.925Z,1.49
2023-01-18T17:40:52.325Z,1.51
2023-01-18T17:43:31.983Z,1.54
2023-01-18T17:46:01.881Z,1.52
2023-01-18T17:48:28.944Z,1.48
2023-01-18T17:50:55.346Z,1.55
2023-01-18T17:53:21.676Z,1.45
2023-01-18T17:55:48.080Z,1.50
2023-01-18T17:58:14.540Z,1.55
2023-01-18T18:00:40.886Z,1.61
2023-01-18T18:03:07.853Z,1.60
2023-01-18T18:05:34.389Z,1.58
2023-01-18T18:08:00.768Z,1.59
2023-01-18T18:10:27.148Z,1.51
2023-01-18T18:12:53.510Z,1.49
2023-01-18T18:15:23.335Z,1.51
2023-01-18T18:17:49.699Z,1.46
2023-01-18T18:20:16.761Z,1.43
2023-01-18T18:22:43.290Z,1.46
2023-01-18T18:25:09.816Z,1.51
2023-01-18T18:27:51.489Z,1.47
2023-01-18T18:30:18.425Z,1.46
2023-01-18T18:32:44.861Z,1.49
2023-01-18T18:35:24.347Z,1.41
2023-01-18T18:37:53.585Z,1.42
2023-01-18T18:40:20.276Z,1.45
2023-01-18T18:43:00.597Z,1.45
2023-01-18T18:45:30.180Z,1.43
2023-01-18T18:47:56.497Z,1.47
2023-01-18T18:50:22.896Z,1.51
2023-01-18T18:52:49.314Z,1.58
2023-01-18T18:55:15.847Z,1.52
2023-01-18T18:57:42.183Z,1.54
2023-01-18T19:00:09.172Z,1.48
2023-01-18T19:02:35.605Z,1.43
2023-01-18T19:05:02.401Z,1.41
2023-01-18T19:07:28.840Z,1.39
2023-01-18T19:09:55.407Z,1.36
2023-01-18T19:12:21.764Z,1.40
2023-01-18T19:14:48.786Z,1.39
2023-01-18T19:17:25.121Z,1.35
2023-01-18T19:19:56.182Z,1.30
2023-01-18T19:22:22.613Z,1.36
2023-01-18T19:24:49.116Z,1.34
2023-01-18T19:27:15.471Z,1.31
2023-01-18T19:29:41.843Z,1.25
2023-01-18T19:32:08.171Z,1.30
2023-01-18T19:34:38.167Z,1.33
2023-01-18T19:37:04.844Z,1.30
2023-01-18T19:39:34.324Z,1.31
2023-01-18T19:42:01.682Z,1.43
2023-01-18T19:44:28.119Z,1.34
2023-01-18T19:46:56.501Z,1.37
2023-01-18T19:49:25.831Z,1.34
2023-01-18T19:51:53.194Z,1.35
2023-01-18T19:54:22.976Z,1.35
2023-01-18T19:56:49.457Z,1.26
2023-01-18T19:59:16.104Z,1.29
2023-01-18T20:01:42.884Z,1.27
2023-01-18T20:04:10.866Z,1.25
2023-01-18T20:06:39.349Z,1.20
2023-01-18T20:09:17.776Z,1.17
2023-01-18T20:11:44.874Z,1.19
2023-01-18T20:14:12.992Z,1.23
2023-01-18T20:16:39.431Z,1.30
2023-01-18T20:19:05.794Z,1.28
2023-01-18T20:21:32.192Z,1.24
2023-01-18T20:23:58.714Z,1.26
2023-01-18T20:26:35.992Z,1.22
2023-01-18T20:29:06.460Z,1.21
2023-01-18T20:31:34.427Z,1.21
2023-01-18T20:34:00.853Z,1.26
2023-01-18T20:36:27.805Z,1.16
2023-01-18T20:38:54.157Z,1.22
2023-01-18T20:41:20.757Z,1.24
2023-01-18T20:43:47.302Z,1.26
2023-01-18T20:46:13.813Z,1.31
2023-01-18T20:48:40.253Z,1.26
2023-01-18T20:51:10.017Z,1.30
2023-01-18T20:53:38.023Z,1.26
2023-01-18T20:56:11.829Z,1.22
2023-01-18T20:58:43.344Z,1.19
2023-01-18T21:01:15.619Z,1.18
2023-01-18T21:03:43.116Z,1.21
2023-01-18T21:06:10.477Z,1.15
2023-01-18T21:08:37.332Z,1.16
2023-01-18T21:11:04.569Z,1.08
2023-01-18T21:13:32.502Z,1.16
2023-01-18T21:15:59.660Z,1.14
2023-01-18T21:18:27.207Z,1.10
2023-01-18T21:20:58.895Z,1.15
2023-01-18T21:23:26.899Z,1.13
2023-01-18T21:25:56.121Z,1.17
2023-01-18T21:28:23.195Z,1.20
2023-01-18T21:30:51.425Z,1.23
2023-01-18T21:33:18.391Z,1.32
2023-01-18T21:35:45.132Z,1.35
2023-01-18T21:38:11.847Z,1.32
2023-01-18T21:40:38.369Z,1.32
2023-01-18T21:43:23.230Z,1.28
2023-01-18T21:45:55.242Z,1.30
2023-01-18T21:48:26.272Z,1.25
2023-01-18T21:51:11.324Z,1.22
2023-01-18T21:53:56.358Z,1.28
2023-01-18T21:56:22.876Z,1.21
2023-01-18T21:58:57.462Z,1.24
2023-01-18T22:01:27.253Z,1.29
2023-01-18T22:04:13.523Z,1.22
2023-01-18T22:06:40.144Z,1.24
2023-01-18T22:09:07.788Z,1.18
2023-01-18T22:11:34.222Z,1.15
2023-01-18T22:14:02.630Z,1.15
2023-01-18T22:16:30.739Z,1.02
2023-01-18T22:18:58.187Z,1.10
2023-01-18T22:21:25.336Z,1.01
2023-01-18T22:23:52.725Z,0.98
2023-01-18T22:26:20.812Z,1.05
2023-01-18T22:28:47.637Z,1.09
2023-01-18T22:31:14.393Z,1.13
2023-01-18T22:33:41.333Z,1.14
2023-01-18T22:36:08.522Z,1.17
2023-01-18T22:38:37.179Z,1.17
2023-01-18T22:41:24.359Z,1.20
2023-01-18T22:43:51.457Z,1.17
2023-01-18T22:46:19.872Z,1.20
2023-01-18T22:48:47.161Z,1.13
2023-01-18T22:51:19.358Z,1.19
2023-01-18T22:53:45.812Z,1.22
2023-01-18T22:56:18.859Z,1.31
2023-01-18T22:58:45.358Z,1.30
2023-01-18T23:01:22.281Z,1.25
2023-01-18T23:03:49.632Z,1.26
2023-01-18T23:06:17.008Z,1.18
2023-01-18T23:08:43.443Z,1.23
2023-01-18T23:11:18.438Z,1.20
2023-01-18T23:14:06.998Z,1.20
2023-01-18T23:16:51.761Z,1.20
2023-01-18T23:19:18.339Z,1.21
2023-01-18T23:21:44.852Z,1.23
2023-01-18T23:24:11.260Z,1.24
2023-01-18T23:26:37.616Z,1.27
2023-01-18T23:29:03.976Z,1.27
2023-01-18T23:31:30.449Z,1.28
2023-01-18T23:33:56.827Z,1.32
2023-01-18T23:36:23.588Z,1.28
2023-01-18T23:39:08.594Z,1.32
2023-01-18T23:41:54.010Z,1.30
2023-01-18T23:44:38.842Z,1.28
2023-01-18T23:47:23.478Z,1.34
2023-01-18T23:50:08.214Z,1.41
2023-01-18T23:52:52.849Z,1.40
2023-01-18T23:55:19.172Z,1.39
2023-01-18T23:57:45.541Z,1.43
